Estrela do Norte, Brazil
Current Conditions -  °F | °C
As of 10:00 PM on Monday 24 Nov 2014 (Local Time) from SBDN Reporting Station
Clear Clear  
Wind Chill: 77°   Ceiling: Unl
Heat Index: 79°   Visibility: 6mi
Dew Point: 70°   Wind: 7mph
Humidity: 78%   Direction: 80°E
Pressure: 29.88"   Gusts: NA
Location:  22.49°S, 51.66°W
Report Text: SBDN 250000Z 08006KT CAVOK 25/21 Q1012
Loading
Personal Weather Stations






























Interactive Weather Map New forecast layout! Learn more

10-Day Weather Forecast

Advertisements
Track Severe Weather on mobile